createdAt,value
2022-12-28T00:00:03.975Z,98
2022-12-28T00:05:03.463Z,98
2022-12-28T00:10:03.879Z,98
2022-12-28T00:15:03.507Z,98
2022-12-28T00:20:03.091Z,98
2022-12-28T00:25:03.759Z,98
2022-12-28T00:30:03.334Z,98
2022-12-28T00:35:03.996Z,98
2022-12-28T00:40:03.423Z,97
2022-12-28T00:45:03.978Z,97
2022-12-28T00:50:03.815Z,97
2022-12-28T00:55:03.334Z,97
2022-12-28T01:00:03.904Z,97
2022-12-28T01:05:03.901Z,97
2022-12-28T01:10:03.464Z,97
2022-12-28T01:15:03.432Z,97
2022-12-28T01:20:03.801Z,96
2022-12-28T01:25:03.618Z,96
2022-12-28T01:30:04.063Z,96
2022-12-28T01:35:03.599Z,96
2022-12-28T01:40:03.216Z,95
2022-12-28T01:45:03.903Z,95
2022-12-28T01:50:03.353Z,95
2022-12-28T01:55:03.953Z,95
2022-12-28T02:00:03.449Z,94
2022-12-28T02:05:03.357Z,94
2022-12-28T02:10:43.490Z,93
2022-12-28T02:15:03.278Z,93
2022-12-28T02:20:04.024Z,92
2022-12-28T02:25:13.254Z,92
2022-12-28T02:30:03.184Z,92
2022-12-28T02:35:03.758Z,92
2022-12-28T02:40:03.823Z,92
2022-12-28T02:45:03.205Z,92
2022-12-28T02:50:03.094Z,91
2022-12-28T02:55:03.381Z,91
2022-12-28T03:00:03.619Z,91
2022-12-28T03:05:03.533Z,91
2022-12-28T03:10:04.017Z,90
2022-12-28T03:15:03.681Z,90
2022-12-28T03:20:04.006Z,90
2022-12-28T03:25:03.482Z,90
2022-12-28T03:30:03.828Z,90
2022-12-28T03:35:03.462Z,90
2022-12-28T03:40:03.190Z,91
2022-12-28T03:45:03.660Z,91
2022-12-28T03:50:03.365Z,91
2022-12-28T03:55:03.703Z,91
2022-12-28T04:00:03.273Z,91
2022-12-28T04:05:03.668Z,91
2022-12-28T04:10:03.388Z,92
2022-12-28T04:15:03.383Z,92
2022-12-28T04:20:03.749Z,93
2022-12-28T04:25:03.243Z,93
2022-12-28T04:30:03.459Z,94
2022-12-28T04:35:03.537Z,94
2022-12-28T04:40:03.296Z,94
2022-12-28T04:45:03.251Z,94
2022-12-28T04:50:03.927Z,95
2022-12-28T04:55:03.652Z,95
2022-12-28T05:00:04.054Z,95
2022-12-28T05:05:04.125Z,95
2022-12-28T05:10:03.755Z,96
2022-12-28T05:15:04.021Z,96
2022-12-28T05:20:03.755Z,96
2022-12-28T05:25:03.463Z,96
2022-12-28T05:30:03.868Z,96
2022-12-28T05:35:03.537Z,96
2022-12-28T05:40:03.561Z,96
2022-12-28T05:45:04.109Z,96
2022-12-28T05:50:03.258Z,97
2022-12-28T05:55:03.686Z,97
2022-12-28T06:00:04.048Z,97
2022-12-28T06:05:03.580Z,97
2022-12-28T06:10:04.057Z,97
2022-12-28T06:15:03.549Z,97
2022-12-28T06:20:04.459Z,97
2022-12-28T06:25:03.698Z,97
2022-12-28T06:30:04.195Z,97
2022-12-28T06:35:03.958Z,97
2022-12-28T06:40:03.659Z,98
2022-12-28T06:45:03.433Z,98
2022-12-28T06:50:03.775Z,98
2022-12-28T06:55:03.508Z,98
2022-12-28T07:00:03.608Z,98
2022-12-28T07:05:03.827Z,98
2022-12-28T07:10:03.444Z,98
2022-12-28T07:15:03.569Z,98
2022-12-28T07:20:04.299Z,98
2022-12-28T07:25:03.748Z,98
2022-12-28T07:30:04.123Z,98
2022-12-28T07:35:03.361Z,98
2022-12-28T07:40:03.949Z,98
2022-12-28T07:45:03.433Z,98
2022-12-28T07:50:03.683Z,99
2022-12-28T07:55:04.295Z,99
2022-12-28T08:00:03.742Z,98
2022-12-28T08:05:03.275Z,98
2022-12-28T08:10:04.303Z,99
2022-12-28T08:15:03.655Z,99
2022-12-28T08:20:04.044Z,99
2022-12-28T08:25:03.690Z,99
2022-12-28T08:30:04.146Z,99
2022-12-28T08:35:03.520Z,99
2022-12-28T08:40:04.084Z,99
2022-12-28T08:45:04.194Z,99
2022-12-28T08:50:03.693Z,99
2022-12-28T08:55:04.111Z,99
2022-12-28T09:00:03.656Z,99
2022-12-28T09:05:04.223Z,99
2022-12-28T09:10:03.568Z,99
2022-12-28T09:15:04.194Z,99
2022-12-28T09:20:03.369Z,99
2022-12-28T09:25:04.321Z,99
2022-12-28T09:30:03.780Z,99
2022-12-28T09:35:03.526Z,99
2022-12-28T09:40:03.842Z,99
2022-12-28T09:45:04.147Z,99
2022-12-28T09:50:03.906Z,99
2022-12-28T09:55:03.685Z,99
2022-12-28T10:00:03.642Z,100
2022-12-28T10:05:04.267Z,100
2022-12-28T10:10:04.382Z,99
2022-12-28T10:15:03.802Z,99
2022-12-28T10:20:03.464Z,100
2022-12-28T10:25:04.323Z,100
2022-12-28T10:30:03.770Z,100
2022-12-28T10:35:03.860Z,100
2022-12-28T10:40:03.797Z,99
2022-12-28T10:45:04.372Z,99
2022-12-28T10:50:36.100Z,100
2022-12-28T10:55:08.163Z,100
2022-12-28T11:00:04.092Z,100
2022-12-28T11:05:03.553Z,100
2022-12-28T11:10:04.441Z,99
2022-12-28T11:15:04.270Z,99
2022-12-28T11:20:03.680Z,99
2022-12-28T11:25:04.100Z,99
2022-12-28T11:30:03.614Z,100
2022-12-28T11:35:03.938Z,100
2022-12-28T11:40:03.637Z,100
2022-12-28T11:45:03.951Z,100
2022-12-28T11:50:04.266Z,100
2022-12-28T11:55:03.672Z,100
2022-12-28T12:00:04.175Z,99
2022-12-28T12:05:03.772Z,99
2022-12-28T12:10:04.380Z,99
2022-12-28T12:15:03.963Z,99
2022-12-28T12:20:04.225Z,99
2022-12-28T12:25:03.744Z,99
2022-12-28T12:30:04.095Z,99
2022-12-28T12:35:03.723Z,99
2022-12-28T12:40:03.748Z,99
2022-12-28T12:45:04.080Z,99
2022-12-28T12:50:03.696Z,99
2022-12-28T12:55:03.875Z,99
2022-12-28T13:00:04.245Z,100
2022-12-28T13:05:03.908Z,100
2022-12-28T13:10:04.293Z,100
2022-12-28T13:15:09.065Z,100
2022-12-28T13:20:03.704Z,99
2022-12-28T13:25:04.259Z,99
2022-12-28T13:30:03.632Z,99
2022-12-28T13:35:04.076Z,99
2022-12-28T13:40:04.215Z,99
2022-12-28T13:45:03.979Z,99
2022-12-28T13:50:04.395Z,99
2022-12-28T13:55:03.751Z,99
2022-12-28T14:00:03.925Z,99
2022-12-28T14:05:04.592Z,99
2022-12-28T14:10:04.009Z,99
2022-12-28T14:15:03.542Z,99
2022-12-28T14:20:03.920Z,99
2022-12-28T14:25:04.356Z,99
2022-12-28T14:30:03.577Z,99
2022-12-28T14:35:03.956Z,99
2022-12-28T14:40:03.605Z,99
2022-12-28T14:45:03.954Z,99
2022-12-28T14:50:04.380Z,99
2022-12-28T14:55:04.143Z,99
2022-12-28T15:00:04.084Z,100
2022-12-28T15:05:04.105Z,100
2022-12-28T15:10:04.549Z,100
2022-12-28T15:15:04.771Z,100
2022-12-28T15:20:03.894Z,100
2022-12-28T15:25:03.842Z,100
2022-12-28T15:30:06.272Z,100
2022-12-28T15:35:03.929Z,100
2022-12-28T15:40:04.124Z,100
2022-12-28T15:45:04.044Z,100
2022-12-28T15:50:03.947Z,100
2022-12-28T15:55:04.083Z,100
2022-12-28T16:00:03.868Z,100
2022-12-28T16:05:04.467Z,100
2022-12-28T16:10:03.647Z,100
2022-12-28T16:15:03.958Z,100
2022-12-28T16:20:03.855Z,100
2022-12-28T16:25:03.840Z,100
2022-12-28T16:30:04.633Z,100
2022-12-28T16:35:04.494Z,100
2022-12-28T16:40:03.907Z,100
2022-12-28T16:45:03.727Z,100
2022-12-28T16:50:04.315Z,100
2022-12-28T16:55:04.134Z,100
2022-12-28T17:00:04.044Z,100
2022-12-28T17:05:03.745Z,100
2022-12-28T17:10:03.733Z,100
2022-12-28T17:15:05.391Z,100
2022-12-28T17:20:04.264Z,100
2022-12-28T17:25:03.863Z,100
2022-12-28T17:30:04.223Z,99
2022-12-28T17:35:03.715Z,99
2022-12-28T17:40:04.519Z,99
2022-12-28T17:45:09.146Z,99
2022-12-28T17:50:04.567Z,100
2022-12-28T17:55:03.702Z,100
2022-12-28T18:00:04.268Z,100
2022-12-28T18:05:03.770Z,100
2022-12-28T18:10:04.412Z,100
2022-12-28T18:15:03.737Z,100
2022-12-28T18:20:04.085Z,100
2022-12-28T18:25:04.479Z,100
2022-12-28T18:30:03.836Z,100
2022-12-28T18:35:04.091Z,100
2022-12-28T18:40:04.000Z,99
2022-12-28T18:45:04.327Z,99
2022-12-28T18:50:04.682Z,99
2022-12-28T18:55:04.424Z,99
2022-12-28T19:00:03.884Z,99
2022-12-28T19:05:04.437Z,99
2022-12-28T19:10:09.935Z,100
2022-12-28T19:15:03.838Z,100
2022-12-28T19:20:04.282Z,100
2022-12-28T19:25:04.670Z,100
2022-12-28T19:30:03.825Z,100
2022-12-28T19:35:04.333Z,100
2022-12-28T19:40:03.956Z,100
2022-12-28T19:45:09.643Z,100
2022-12-28T19:50:04.385Z,100
2022-12-28T19:55:04.285Z,100
2022-12-28T20:00:04.749Z,99
2022-12-28T20:05:04.324Z,99
2022-12-28T20:10:04.560Z,99
2022-12-28T20:15:04.616Z,99
2022-12-28T20:20:04.050Z,99
2022-12-28T20:25:04.384Z,99
2022-12-28T20:30:04.595Z,99
2022-12-28T20:35:04.104Z,99
2022-12-28T20:40:04.313Z,99
2022-12-28T20:45:03.964Z,99
2022-12-28T20:50:04.587Z,99
2022-12-28T20:55:04.283Z,99
2022-12-28T21:00:04.225Z,99
2022-12-28T21:05:04.257Z,99
2022-12-28T21:10:03.974Z,99
2022-12-28T21:15:04.679Z,99
2022-12-28T21:20:04.360Z,99
2022-12-28T21:25:04.772Z,99
2022-12-28T21:30:04.320Z,99
2022-12-28T21:35:04.313Z,99
2022-12-28T21:40:04.910Z,99
2022-12-28T21:45:04.417Z,99
2022-12-28T21:50:03.887Z,99
2022-12-28T21:55:04.442Z,99
2022-12-28T22:00:03.875Z,99
2022-12-28T22:05:04.172Z,99
2022-12-28T22:10:04.514Z,99
2022-12-28T22:15:04.187Z,99
2022-12-28T22:20:04.767Z,99
2022-12-28T22:25:03.949Z,99
2022-12-28T22:30:04.173Z,99
2022-12-28T22:35:04.249Z,99
2022-12-28T22:40:04.695Z,99
2022-12-28T22:45:04.185Z,99
2022-12-28T22:50:04.701Z,99
2022-12-28T22:55:04.249Z,99
2022-12-28T23:00:04.555Z,99
2022-12-28T23:05:04.342Z,99
2022-12-28T23:10:04.895Z,99
2022-12-28T23:15:04.423Z,99
2022-12-28T23:20:04.749Z,99
2022-12-28T23:25:04.284Z,99
2022-12-28T23:30:04.551Z,99
2022-12-28T23:35:03.951Z,99
2022-12-28T23:40:04.212Z,99
2022-12-28T23:45:04.630Z,99
2022-12-28T23:50:03.887Z,99
2022-12-28T23:55:04.440Z,99
